Time;durP1;ratioP1;P1;durP2;ratioP2;P2;SDS_P1;SDS_P2;PMS_P1;PMS_P2;Temp;Humidity;BMP_temperature;BMP_pressure;BME280_temperature;BME280_humidity;BME280_pressure;Samples;Min_cycle;Max_cycle;Signal;HPM_P1;HPM_P2
2022/05/05 00:02:26;;;;;;;14.70;12.17;;;;;7.80;94232.00;;;;7406688;19;20161;-80
2022/05/05 00:05:00;;;;;;;20.57;14.40;;;;;7.90;94225.00;;;;7405699;19;20144;-81
2022/05/05 00:07:28;;;;;;;21.23;16.57;;;;;8.20;94224.00;;;;7404680;19;20121;-80
2022/05/05 00:09:55;;;;;;;18.70;11.73;;;;;8.00;94222.00;;;;7408875;19;20160;-81
2022/05/05 00:15:15;;;;;;;22.07;14.83;;;;;8.10;94229.00;;;;7406780;19;20143;-81
2022/05/05 00:17:50;;;;;;;19.77;14.97;;;;;8.00;94219.00;;;;7418888;19;20128;-81
2022/05/05 00:20:18;;;;;;;20.57;16.70;;;;;8.10;94219.00;;;;7414315;19;20604;-81
2022/05/05 00:22:45;;;;;;;25.60;17.27;;;;;8.10;94213.00;;;;7414003;19;20172;-81
2022/05/05 00:25:19;;;;;;;24.43;17.87;;;;;8.30;94215.00;;;;7414545;19;20468;-80
2022/05/05 00:27:47;;;;;;;19.73;15.53;;;;;8.20;94210.00;;;;7411844;19;20234;-82
2022/05/05 00:30:14;;;;;;;24.77;16.00;;;;;8.00;94215.00;;;;7411978;19;20154;-81
2022/05/05 00:32:48;;;;;;;26.33;16.03;;;;;8.00;94213.00;;;;7415021;19;20192;-81
2022/05/05 00:35:16;;;;;;;23.47;15.43;;;;;7.90;94210.00;;;;7413705;19;20137;-82
2022/05/05 00:37:43;;;;;;;24.20;15.73;;;;;7.80;94213.00;;;;7406554;19;20165;-80
2022/05/05 00:40:19;;;;;;;22.77;15.33;;;;;7.80;94209.00;;;;7415534;19;20141;-80
2022/05/05 00:42:46;;;;;;;19.90;14.27;;;;;7.70;94208.00;;;;7417821;19;20141;-80
2022/05/05 00:45:15;;;;;;;23.97;14.20;;;;;7.70;94210.00;;;;7412405;19;20664;-81
2022/05/05 00:47:49;;;;;;;23.07;14.80;;;;;7.70;94214.00;;;;7418801;19;20140;-80
2022/05/05 00:50:19;;;;;;;20.33;15.50;;;;;7.90;94212.00;;;;7411013;19;20141;-80
2022/05/05 00:52:46;;;;;;;22.40;16.33;;;;;8.10;94210.00;;;;7421799;19;20137;-80
2022/05/05 00:55:20;;;;;;;19.90;16.00;;;;;7.90;94210.00;;;;7419580;19;20467;-80
2022/05/05 00:57:48;;;;;;;19.93;13.97;;;;;7.90;94206.00;;;;7412970;19;20232;-80
2022/05/05 01:00:16;;;;;;;16.87;13.70;;;;;7.90;94212.00;;;;7418945;19;20109;-81
2022/05/05 01:02:51;;;;;;;16.70;13.10;;;;;7.70;94204.00;;;;7419554;19;20133;-80
2022/05/05 01:05:18;;;;;;;18.63;13.07;;;;;7.50;94203.00;;;;7419143;19;20147;-80
2022/05/05 01:07:47;;;;;;;14.97;11.10;;;;;7.40;94218.00;;;;7419869;19;20165;-80
2022/05/05 01:10:22;;;;;;;15.93;12.40;;;;;7.30;94212.00;;;;7419759;19;20163;-80
2022/05/05 01:12:50;;;;;;;16.33;12.33;;;;;7.30;94212.00;;;;7425018;19;20154;-80
2022/05/05 01:15:20;;;;;;;14.70;11.90;;;;;7.20;94211.00;;;;7420642;19;20141;-79
2022/05/05 01:17:54;;;;;;;20.07;12.17;;;;;7.20;94221.00;;;;7426018;19;20140;-78
2022/05/05 01:20:22;;;;;;;18.27;13.10;;;;;7.20;94213.00;;;;7424296;19;20129;-82
2022/05/05 01:22:50;;;;;;;22.63;14.50;;;;;7.20;94217.00;;;;7424379;19;20182;-80
2022/05/05 01:28:21;;;;;;;18.43;14.07;;;;;7.40;94212.00;;;;7419273;19;20135;-81
2022/05/05 01:30:55;;;;;;;21.57;14.33;;;;;7.50;94209.00;;;;7418603;19;20144;-81
2022/05/05 01:33:24;;;;;;;18.27;14.37;;;;;7.50;94210.00;;;;7426349;19;20134;-81
2022/05/05 01:35:54;;;;;;;20.07;14.20;;;;;7.40;94215.00;;;;7424479;19;20121;-79
2022/05/05 01:38:41;;;;;;;20.03;14.60;;;;;7.50;94215.00;;;;7420103;19;20140;-80
2022/05/05 01:41:14;;;;;;;20.23;14.83;;;;;7.50;94215.00;;;;7420470;19;20133;-81
2022/05/05 01:43:48;;;;;;;22.80;15.23;;;;;7.50;94219.00;;;;7425524;19;20152;-81
2022/05/05 01:46:16;;;;;;;19.50;15.43;;;;;7.70;94220.00;;;;7422942;19;20124;-79
2022/05/05 01:48:44;;;;;;;20.17;16.13;;;;;7.80;94222.00;;;;7423529;19;20133;-80
2022/05/05 01:51:17;;;;;;;21.63;17.03;;;;;7.80;94223.00;;;;7426022;19;20127;-80
2022/05/05 01:53:45;;;;;;;21.20;17.17;;;;;8.00;94220.00;;;;7424231;19;20136;-80
2022/05/05 01:56:13;;;;;;;21.80;17.07;;;;;8.00;94217.00;;;;7428148;19;20121;-80
2022/05/05 01:58:47;;;;;;;23.43;17.60;;;;;8.00;94223.00;;;;7428464;19;20149;-80
2022/05/05 03:29:43;;;;;;;20.73;13.60;;;;;8.40;94206.00;;;;7335676;19;20160;31
2022/05/05 03:32:25;;;;;;;17.23;14.23;;;;;8.30;94207.00;;;;7415946;19;20138;-81
2022/05/05 03:34:53;;;;;;;19.07;14.27;;;;;8.40;94206.00;;;;7419454;19;20132;-79
2022/05/05 03:37:34;;;;;;;18.30;14.33;;;;;8.30;94213.00;;;;7424168;19;20144;-82
2022/05/05 03:40:05;;;;;;;20.10;14.77;;;;;8.50;94214.00;;;;7415791;19;20127;-81
2022/05/05 03:42:40;;;;;;;17.80;14.13;;;;;8.40;94210.00;;;;7423681;19;20137;-81
2022/05/05 03:45:11;;;;;;;15.87;13.03;;;;;8.20;94223.00;;;;7424168;19;20133;-81
2022/05/05 03:47:40;;;;;;;18.97;14.70;;;;;8.20;94221.00;;;;7419010;19;20150;-80
2022/05/05 03:50:15;;;;;;;18.23;14.17;;;;;8.20;94216.00;;;;7417319;19;20609;-79
2022/05/05 03:52:42;;;;;;;17.37;14.33;;;;;8.10;94221.00;;;;7420354;19;20125;-80
2022/05/05 03:55:10;;;;;;;18.00;15.13;;;;;8.10;94222.00;;;;7408759;19;20152;-79
2022/05/05 03:57:48;;;;;;;18.33;14.97;;;;;8.30;94222.00;;;;7411239;19;20120;-81
2022/05/05 04:00:18;;;;;;;19.67;14.97;;;;;8.30;94223.00;;;;7407898;19;20149;-79
2022/05/05 04:05:39;;;;;;;16.53;14.27;;;;;8.30;94230.00;;;;7415141;19;20157;-80
2022/05/05 04:08:13;;;;;;;16.30;14.57;;;;;8.40;94233.00;;;;7414407;19;20169;-80
2022/05/05 04:10:40;;;;;;;16.23;12.37;;;;;8.60;94237.00;;;;7409384;19;20193;-80
2022/05/05 04:13:08;;;;;;;16.47;14.23;;;;;8.50;94225.00;;;;7409438;19;20153;-80
2022/05/05 04:15:45;;;;;;;16.57;13.20;;;;;8.60;94224.00;;;;7401322;19;20136;-80
2022/05/05 04:18:15;;;;;;;15.73;13.67;;;;;8.60;94228.00;;;;7405871;19;20136;-79
2022/05/05 04:20:43;;;;;;;15.10;12.43;;;;;8.50;94231.00;;;;7404905;19;20170;-80
2022/05/05 04:23:17;;;;;;;17.57;13.13;;;;;8.70;94234.00;;;;7398129;19;20129;-80
2022/05/05 04:26:05;;;;;;;15.70;12.47;;;;;8.70;94240.00;;;;7399851;19;21045;-80
2022/05/05 04:28:41;;;;;;;13.63;12.07;;;;;8.70;94234.00;;;;7400844;19;20534;-80
2022/05/05 04:31:18;;;;;;;13.67;10.53;;;;;8.60;94237.00;;;;7401352;19;20236;-80
2022/05/05 04:34:00;;;;;;;16.33;11.13;;;;;8.70;94250.00;;;;7401569;19;20148;-82
2022/05/05 04:36:28;;;;;;;15.60;12.20;;;;;8.70;94256.00;;;;7403613;19;20132;-80
2022/05/05 04:39:05;;;;;;;13.00;11.60;;;;;8.60;94252.00;;;;7407599;19;20144;-80
2022/05/05 04:41:34;;;;;;;15.07;12.77;;;;;8.70;94254.00;;;;7403351;19;20279;-80
2022/05/05 04:44:04;;;;;;;13.93;12.37;;;;;8.80;94253.00;;;;7402373;19;20125;-80
2022/05/05 04:46:38;;;;;;;12.93;11.43;;;;;8.80;94255.00;;;;7403152;19;20587;-80
2022/05/05 04:49:08;;;;;;;16.03;12.93;;;;;8.80;94253.00;;;;7402664;19;20162;-79
2022/05/05 04:51:35;;;;;;;17.20;13.10;;;;;8.90;94252.00;;;;7403470;19;20144;-79
2022/05/05 04:54:10;;;;;;;18.40;12.67;;;;;8.90;94262.00;;;;7408220;19;20140;-78
2022/05/05 04:56:38;;;;;;;15.03;12.13;;;;;8.80;94263.00;;;;7406363;19;20164;-78
2022/05/05 04:59:06;;;;;;;12.53;11.23;;;;;8.90;94264.00;;;;7401757;19;20613;-78
2022/05/05 05:01:40;;;;;;;12.10;10.80;;;;;9.00;94265.00;;;;7399046;19;20623;-79
2022/05/05 05:04:08;;;;;;;14.53;11.10;;;;;9.10;94258.00;;;;7401304;19;20141;-80
2022/05/05 05:06:36;;;;;;;14.57;10.53;;;;;9.00;94255.00;;;;7400178;19;20125;-78
2022/05/05 05:09:10;;;;;;;12.57;10.07;;;;;8.90;94262.00;;;;7398919;19;20476;-78
2022/05/05 05:11:40;;;;;;;10.67;9.33;;;;;8.90;94268.00;;;;7400775;19;20128;-80
2022/05/05 05:14:08;;;;;;;12.50;10.07;;;;;9.00;94273.00;;;;7400988;19;20671;-79
2022/05/05 05:16:45;;;;;;;11.70;9.60;;;;;9.10;94268.00;;;;7399140;19;20140;-79
2022/05/05 05:19:13;;;;;;;11.13;9.80;;;;;9.20;94276.00;;;;7399294;19;20180;-78
2022/05/05 05:21:45;;;;;;;10.80;9.60;;;;;9.40;94274.00;;;;7402179;19;20165;-79
2022/05/05 05:24:20;;;;;;;11.97;9.43;;;;;9.60;94274.00;;;;7400676;19;20546;-79
2022/05/05 05:26:54;;;;;;;10.60;9.27;;;;;9.30;94269.00;;;;7399048;19;20147;-82
2022/05/05 05:29:28;;;;;;;12.63;9.83;;;;;9.70;94280.00;;;;7398485;19;20148;-77
2022/05/05 05:32:03;;;;;;;13.80;9.80;;;;;9.50;94278.00;;;;7397470;19;20188;-79
2022/05/05 05:34:38;;;;;;;10.03;9.00;;;;;9.20;94280.00;;;;7398645;19;20121;-81
2022/05/05 05:37:06;;;;;;;13.80;9.47;;;;;9.30;94280.00;;;;7400302;19;20133;-80
2022/05/05 05:39:34;;;;;;;11.70;9.20;;;;;9.30;94277.00;;;;7403243;19;20603;-80
2022/05/05 05:42:09;;;;;;;10.07;9.07;;;;;9.20;94282.00;;;;7399257;19;20479;-80
2022/05/05 05:44:37;;;;;;;10.60;9.40;;;;;9.30;94284.00;;;;7399309;19;20145;-78
2022/05/05 05:47:05;;;;;;;10.40;9.23;;;;;9.40;94283.00;;;;7399879;19;20145;-79
2022/05/05 05:49:39;;;;;;;12.27;9.43;;;;;9.50;94282.00;;;;7398753;19;20599;-77
2022/05/05 05:52:07;;;;;;;11.70;9.50;;;;;9.50;94283.00;;;;7401228;19;20145;-77
2022/05/05 05:54:35;;;;;;;9.80;8.77;;;;;9.60;94281.00;;;;7398514;19;20161;-78
2022/05/05 05:57:14;;;;;;;13.50;9.03;;;;;9.50;94280.00;;;;7398447;19;20476;-78
2022/05/05 05:59:42;;;;;;;12.30;8.67;;;;;9.60;94280.00;;;;7398325;19;20608;-79
2022/05/05 06:05:04;;;;;;;13.33;9.17;;;;;9.70;94283.00;;;;7397219;19;20140;-80
2022/05/05 06:07:38;;;;;;;10.27;9.17;;;;;9.70;94288.00;;;;7396642;19;20128;-81
2022/05/05 06:10:06;;;;;;;12.07;8.33;;;;;9.60;94300.00;;;;7397212;19;20133;-80
2022/05/05 06:12:34;;;;;;;11.20;8.80;;;;;9.80;94296.00;;;;7397451;19;20133;-79
2022/05/05 06:15:14;;;;;;;12.07;8.30;;;;;9.80;94292.00;;;;7395387;19;20464;-78
2022/05/05 06:17:42;;;;;;;11.77;7.97;;;;;9.80;94301.00;;;;7397167;19;20245;-79
2022/05/05 06:20:17;;;;;;;10.60;7.90;;;;;9.80;94293.00;;;;7394498;19;20512;-78
2022/05/05 06:22:45;;;;;;;9.60;8.50;;;;;9.70;94305.00;;;;7399045;19;20473;-79
2022/05/05 06:25:13;;;;;;;9.67;7.80;;;;;9.80;94310.00;;;;7397414;19;20133;-78
2022/05/05 06:27:48;;;;;;;9.27;8.03;;;;;10.00;94314.00;;;;7397174;19;20136;-78
2022/05/05 06:30:23;;;;;;;10.13;8.03;;;;;10.00;94314.00;;;;7394142;19;20588;-79
2022/05/05 06:33:04;;;;;;;10.37;8.53;;;;;9.90;94317.00;;;;7396839;19;20144;-77
2022/05/05 06:35:32;;;;;;;10.67;8.47;;;;;9.90;94318.00;;;;7397363;19;20135;-80
2022/05/05 06:38:07;;;;;;;9.53;7.50;;;;;9.80;94321.00;;;;7395967;19;20140;-80
2022/05/05 06:40:35;;;;;;;9.77;8.03;;;;;9.80;94329.00;;;;7396390;19;20196;-81
2022/05/05 06:43:03;;;;;;;10.60;8.57;;;;;9.60;94328.00;;;;7393753;19;20157;-79
2022/05/05 06:45:38;;;;;;;11.53;9.23;;;;;9.80;94327.00;;;;7396516;19;20152;-81
2022/05/05 06:48:06;;;;;;;10.00;8.73;;;;;9.80;94324.00;;;;7396232;19;20133;-79
2022/05/05 06:50:34;;;;;;;10.40;9.30;;;;;9.90;94328.00;;;;7394460;19;20154;-79
2022/05/05 06:53:08;;;;;;;10.43;9.10;;;;;9.80;94331.00;;;;7395498;19;20889;-79
2022/05/05 06:55:36;;;;;;;10.47;8.93;;;;;10.00;94326.00;;;;7395792;19;20148;-79
2022/05/05 06:58:04;;;;;;;9.87;8.97;;;;;10.40;94342.00;;;;7395862;19;20140;-79
2022/05/05 07:03:25;;;;;;;15.10;9.63;;;;;10.20;94338.00;;;;7394526;19;20139;-77
2022/05/05 07:06:00;;;;;;;10.73;9.63;;;;;10.10;94334.00;;;;7396008;19;20132;-76
2022/05/05 07:10:52;;;;;;;13.23;9.03;;;;;10.40;94345.00;;;;7395875;19;20140;-81
2022/05/05 07:11:23;;;;;;;12.73;8.97;;;;;10.60;94336.00;;;;7392945;19;20164;-78
2022/05/05 07:13:51;;;;;;;10.40;8.60;;;;;10.60;94345.00;;;;7395358;19;20145;-77
2022/05/05 07:16:19;;;;;;;10.00;9.00;;;;;11.10;94340.00;;;;7391955;19;20145;-78
2022/05/05 07:18:54;;;;;;;13.32;8.52;;;;;11.30;94343.00;;;;7396477;19;20192;-78
2022/05/05 07:21:22;;;;;;;12.05;8.18;;;;;11.30;94345.00;;;;7393939;19;20620;-78
2022/05/05 07:23:50;;;;;;;10.60;8.20;;;;;11.00;94345.00;;;;7396038;19;20141;-78
2022/05/05 07:26:25;;;;;;;9.90;8.00;;;;;11.30;94348.00;;;;7398766;19;20143;-78
2022/05/05 07:28:52;;;;;;;10.73;8.77;;;;;11.70;94355.00;;;;7404543;19;20129;-77
2022/05/05 07:31:20;;;;;;;9.82;8.50;;;;;11.60;94344.00;;;;7399159;19;20164;-78
2022/05/05 07:34:01;;;;;;;13.20;9.52;;;;;11.50;94348.00;;;;7404257;19;20129;-79
2022/05/05 07:36:29;;;;;;;15.07;10.00;;;;;11.70;94357.00;;;;7403436;19;20133;-79
2022/05/05 07:39:03;;;;;;;12.63;9.48;;;;;11.80;94358.00;;;;7403441;19;20188;-77
2022/05/05 07:41:31;;;;;;;12.93;10.70;;;;;11.80;94349.00;;;;7403615;19;20125;-77
2022/05/05 07:44:00;;;;;;;11.50;9.88;;;;;11.70;94355.00;;;;7402300;19;20141;-78
2022/05/05 07:46:36;;;;;;;10.95;9.57;;;;;11.40;94359.00;;;;7403393;19;20137;-80
2022/05/05 07:49:05;;;;;;;10.77;9.68;;;;;11.40;94360.00;;;;7401364;19;20865;-77
2022/05/05 07:51:34;;;;;;;13.27;11.88;;;;;11.50;94361.00;;;;7399012;19;20228;-77
2022/05/05 07:56:56;;;;;;;15.98;11.23;;;;;11.10;94369.00;;;;7398150;19;20141;-78
2022/05/05 07:59:31;;;;;;;14.63;11.05;;;;;11.40;94366.00;;;;7397912;19;20203;-79
2022/05/05 08:01:59;;;;;;;16.00;12.18;;;;;11.60;94374.00;;;;7397433;19;20204;-77
2022/05/05 08:04:27;;;;;;;19.95;12.30;;;;;11.60;94374.00;;;;7396860;19;20141;-78
2022/05/05 08:07:02;;;;;;;13.77;12.02;;;;;11.50;94380.00;;;;7397909;19;20151;-78
2022/05/05 08:09:30;;;;;;;16.33;13.75;;;;;11.50;94379.00;;;;7397834;19;20128;-77
2022/05/05 08:12:17;;;;;;;17.90;13.02;;;;;11.40;94387.00;;;;7399912;19;20125;-77
2022/05/05 08:14:52;;;;;;;19.45;13.88;;;;;11.30;94386.00;;;;7399136;19;20129;-78
2022/05/05 08:17:19;;;;;;;15.60;13.90;;;;;11.50;94387.00;;;;7398202;19;20173;-78
2022/05/05 08:19:47;;;;;;;20.48;14.02;;;;;11.40;94389.00;;;;7396494;19;20635;-79
2022/05/05 08:22:22;;;;;;;19.77;14.82;;;;;11.30;94393.00;;;;7400639;19;20481;-78
2022/05/05 08:30:30;;;;;;;20.63;15.48;;;;;11.10;94390.00;;;;7397458;19;20580;-80
2022/05/05 08:33:11;;;;;;;23.35;16.67;;;;;10.90;94395.00;;;;7400149;19;20538;-80
2022/05/05 08:35:41;;;;;;;20.00;16.77;;;;;10.80;94405.00;;;;7400456;19;20606;-80
2022/05/05 08:38:17;;;;;;;25.70;16.80;;;;;10.90;94406.00;;;;7400828;19;20128;-80
2022/05/05 08:40:45;;;;;;;21.52;17.88;;;;;10.60;94403.00;;;;7399831;19;20133;-81
2022/05/05 08:43:13;;;;;;;22.42;17.83;;;;;10.80;94415.00;;;;7399464;19;20563;-78
2022/05/05 08:45:50;;;;;;;25.13;19.17;;;;;10.90;94413.00;;;;7400214;19;20164;-79
2022/05/05 08:48:18;;;;;;;23.67;19.05;;;;;11.20;94410.00;;;;7400273;19;20137;-81
2022/05/05 08:50:51;;;;;;;21.90;19.38;;;;;11.20;94418.00;;;;7400132;19;20137;-79
2022/05/05 08:53:32;;;;;;;24.60;20.58;;;;;11.10;94414.00;;;;7404086;19;20132;-78
2022/05/05 08:56:03;;;;;;;27.92;21.10;;;;;11.20;94427.00;;;;7402956;19;20575;-79
2022/05/05 08:58:36;;;;;;;30.10;22.55;;;;;11.20;94423.00;;;;7400917;19;20165;-80
2022/05/05 09:01:04;;;;;;;24.30;21.70;;;;;11.40;94419.00;;;;7400051;19;20181;-78
2022/05/05 09:03:33;;;;;;;23.60;20.38;;;;;11.50;94421.00;;;;7400989;19;20133;-78
2022/05/05 09:06:07;;;;;;;25.58;20.77;;;;;11.90;94414.00;;;;7400042;19;20457;-78
2022/05/05 09:08:35;;;;;;;24.88;22.05;;;;;12.20;94421.00;;;;7399214;19;20213;-78
2022/05/05 09:11:06;;;;;;;26.38;20.15;;;;;12.20;94421.00;;;;7397117;19;20223;-79
2022/05/05 09:13:40;;;;;;;23.70;19.48;;;;;12.30;94407.00;;;;7400458;19;20502;-79
2022/05/05 09:16:08;;;;;;;23.45;19.75;;;;;11.80;94421.00;;;;7395773;19;20137;-79
2022/05/05 09:18:36;;;;;;;27.23;20.98;;;;;12.30;94418.00;;;;7398059;19;20148;-79
2022/05/05 09:21:11;;;;;;;22.65;19.73;;;;;12.50;94419.00;;;;7397936;19;20138;-79
2022/05/05 09:26:35;;;;;;;22.67;18.33;;;;;12.40;94417.00;;;;7399388;19;20188;-79
2022/05/05 09:29:19;;;;;;;21.85;18.02;;;;;12.80;94414.00;;;;7398511;19;20147;-81
2022/05/05 09:32:00;;;;;;;19.73;17.70;;;;;13.10;94421.00;;;;7395788;19;20580;-80
2022/05/05 09:34:34;;;;;;;20.13;17.95;;;;;13.40;94424.00;;;;7397045;19;20135;-80
2022/05/05 09:37:19;;;;;;;21.77;17.63;;;;;13.60;94427.00;;;;7397372;19;20135;-78
2022/05/05 09:39:52;;;;;;;20.92;18.35;;;;;13.30;94421.00;;;;7397630;19;20154;-79
2022/05/05 09:42:38;;;;;;;19.88;17.83;;;;;13.40;94429.00;;;;7398445;19;20599;-80
2022/05/05 09:45:13;;;;;;;22.80;18.42;;;;;12.90;94427.00;;;;7399415;19;20161;-80
2022/05/05 09:47:51;;;;;;;23.88;19.77;;;;;13.50;94437.00;;;;7397999;19;20133;-79
2022/05/05 09:50:22;;;;;;;23.10;20.15;;;;;13.50;94438.00;;;;7395945;19;20565;-79
2022/05/05 09:58:48;;;;;;;24.05;20.67;;;;;11.30;94455.00;;;;7398880;19;20145;-81
2022/05/05 10:01:24;;;;;;;20.95;18.75;;;;;11.80;94456.00;;;;7399509;19;20580;-79
2022/05/05 10:04:00;;;;;;;21.95;18.15;;;;;11.60;94462.00;;;;7397788;19;20925;-81
2022/05/05 10:06:34;;;;;;;21.13;17.90;;;;;11.70;94463.00;;;;7397340;19;20153;-80
2022/05/05 10:09:13;;;;;;;23.48;19.40;;;;;11.80;94457.00;;;;7396876;19;20479;-81
2022/05/05 10:11:41;;;;;;;22.50;19.70;;;;;11.70;94460.00;;;;7396959;19;20141;-80
2022/05/05 10:14:16;;;;;;;23.25;20.27;;;;;11.50;94458.00;;;;7397651;19;20225;-80
2022/05/05 10:16:44;;;;;;;21.95;19.50;;;;;11.70;94462.00;;;;7395796;19;20141;-80
2022/05/05 10:19:15;;;;;;;24.10;19.48;;;;;12.10;94463.00;;;;7398748;19;20161;-80
2022/05/05 10:21:51;;;;;;;24.40;19.00;;;;;12.20;94464.00;;;;7397160;19;20132;-79
2022/05/05 10:24:22;;;;;;;21.30;18.48;;;;;12.10;94456.00;;;;7399785;19;20125;-81
2022/05/05 10:27:06;;;;;;;19.98;17.83;;;;;12.50;94457.00;;;;7393615;19;20142;-79
2022/05/05 10:29:46;;;;;;;21.42;17.00;;;;;12.00;94455.00;;;;7395056;19;20140;-80
2022/05/05 10:32:30;;;;;;;26.05;17.48;;;;;12.00;94451.00;;;;7392198;19;20175;-80
2022/05/05 10:35:11;;;;;;;18.20;16.27;;;;;12.20;94456.00;;;;7399475;19;20129;-79
2022/05/05 10:37:46;;;;;;;18.63;15.90;;;;;12.30;94450.00;;;;7396683;19;20614;-79
2022/05/05 10:40:14;;;;;;;19.42;17.33;;;;;12.80;94458.00;;;;7394961;19;20137;-79
2022/05/05 10:42:45;;;;;;;23.65;17.33;;;;;13.00;94453.00;;;;7394212;19;20576;-79
2022/05/05 10:45:28;;;;;;;20.80;17.40;;;;;13.10;94452.00;;;;7390864;19;20574;-81
2022/05/05 10:47:58;;;;;;;19.67;17.58;;;;;13.50;94450.00;;;;7394823;19;20148;-79
2022/05/05 10:50:56;;;;;;;23.13;17.30;;;;;13.20;94449.00;;;;7388453;19;20534;-80
2022/05/05 10:53:32;;;;;;;20.13;17.23;;;;;13.60;94444.00;;;;7390967;19;20129;-80
2022/05/05 10:56:26;;;;;;;20.10;16.13;;;;;14.20;94448.00;;;;7389271;19;20137;-79
2022/05/05 10:59:09;;;;;;;20.60;16.58;;;;;14.50;94447.00;;;;7389369;19;20745;-80
2022/05/05 11:01:47;;;;;;;22.45;16.23;;;;;14.00;94452.00;;;;7389246;19;20135;-81
2022/05/05 11:04:15;;;;;;;22.27;16.05;;;;;13.20;94458.00;;;;7389423;19;20132;-81
2022/05/05 11:06:45;;;;;;;19.33;16.17;;;;;13.00;94458.00;;;;7389811;19;20613;-81
2022/05/05 11:09:36;;;;;;;20.17;16.40;;;;;13.10;94460.00;;;;7388787;19;20141;-81
2022/05/05 11:12:19;;;;;;;19.77;15.95;;;;;12.70;94459.00;;;;7387924;19;20148;-82
2022/05/05 11:24:00;;;;;;;21.27;17.58;;;;;12.00;94463.00;;;;7395671;19;20145;-81
2022/05/05 11:26:34;;;;;;;20.60;17.35;;;;;12.20;94468.00;;;;7393417;19;20128;-81
2022/05/05 11:29:02;;;;;;;22.15;18.20;;;;;12.50;94468.00;;;;7394549;19;20158;-82
2022/05/05 11:31:31;;;;;;;21.15;18.33;;;;;12.60;94464.00;;;;7392911;19;20200;-78
2022/05/05 11:34:05;;;;;;;22.23;18.83;;;;;12.60;94465.00;;;;7393902;19;20133;-83
2022/05/05 11:36:35;;;;;;;22.27;18.23;;;;;12.60;94460.00;;;;7395789;19;20170;-78
2022/05/05 11:39:03;;;;;;;21.08;18.42;;;;;12.70;94458.00;;;;7395902;19;20152;-81
2022/05/05 11:41:38;;;;;;;20.35;18.15;;;;;12.70;94457.00;;;;7396007;19;20161;-81
2022/05/05 11:44:14;;;;;;;25.83;18.40;;;;;13.10;94451.00;;;;7393864;19;20216;-79
2022/05/05 11:46:50;;;;;;;24.25;17.85;;;;;13.10;94448.00;;;;7395025;19;20161;-80
2022/05/05 11:49:19;;;;;;;20.38;17.98;;;;;13.60;94440.00;;;;7394307;19;20137;-81
2022/05/05 11:51:48;;;;;;;19.42;15.43;;;;;13.40;94448.00;;;;7392980;19;20145;-79
2022/05/05 11:54:30;;;;;;;21.27;16.77;;;;;13.30;94437.00;;;;7390959;19;20148;-80
2022/05/05 11:56:58;;;;;;;21.75;16.48;;;;;13.20;94442.00;;;;7390941;19;20619;-82
2022/05/05 12:02:22;;;;;;;20.13;16.85;;;;;13.90;94438.00;;;;7393209;19;20164;-80
2022/05/05 12:04:57;;;;;;;21.23;17.95;;;;;13.80;94435.00;;;;7394575;19;20136;-77
2022/05/05 12:07:28;;;;;;;21.50;17.00;;;;;13.50;94435.00;;;;7394461;19;20145;-78
2022/05/05 12:10:02;;;;;;;22.95;18.25;;;;;14.00;94436.00;;;;7388538;19;20200;-79
2022/05/05 12:12:37;;;;;;;20.60;17.23;;;;;13.70;94445.00;;;;7393738;19;20501;-81
2022/05/05 12:15:07;;;;;;;20.25;17.30;;;;;13.30;94441.00;;;;7400875;19;20496;-78
2022/05/05 12:17:42;;;;;;;23.30;17.98;;;;;13.60;94438.00;;;;7399392;19;20482;-78
2022/05/05 12:20:21;;;;;;;20.63;18.20;;;;;13.50;94439.00;;;;7397831;19;20149;-77
2022/05/05 12:22:57;;;;;;;30.88;18.80;;;;;13.70;94437.00;;;;7398888;19;20145;-78
2022/05/05 12:25:33;;;;;;;23.33;19.08;;;;;14.80;94426.00;;;;7401478;19;20490;-77
2022/05/05 12:28:05;;;;;;;21.30;19.05;;;;;14.90;94424.00;;;;7399359;19;20207;-77
2022/05/05 12:30:41;;;;;;;24.15;20.17;;;;;15.10;94429.00;;;;7401817;19;20151;-78
2022/05/05 12:33:17;;;;;;;21.05;19.02;;;;;15.30;94420.00;;;;7396883;19;20165;-77
2022/05/05 12:35:52;;;;;;;23.60;20.20;;;;;15.80;94423.00;;;;7399591;19;20613;-78
2022/05/05 12:38:20;;;;;;;24.40;21.02;;;;;16.40;94416.00;;;;7401265;19;20154;-78
2022/05/05 12:41:09;;;;;;;20.23;18.13;;;;;17.00;94417.00;;;;7399065;19;20200;-79
2022/05/05 12:43:44;;;;;;;25.27;18.13;;;;;17.00;94411.00;;;;7399102;19;20144;-77
2022/05/05 12:46:16;;;;;;;19.17;17.25;;;;;16.40;94420.00;;;;7399779;19;20129;-76
2022/05/05 12:48:54;;;;;;;20.10;17.63;;;;;16.00;94416.00;;;;7398669;19;20148;-78
2022/05/05 12:51:28;;;;;;;19.98;17.80;;;;;16.10;94419.00;;;;7399552;19;20466;-79
2022/05/05 12:59:47;;;;;;;20.75;16.67;;;;;15.20;94411.00;;;;7401258;19;20149;-75
2022/05/05 13:02:15;;;;;;;20.10;17.45;;;;;15.90;94409.00;;;;7395972;19;20224;-79
2022/05/05 13:04:50;;;;;;;21.52;18.15;;;;;15.50;94403.00;;;;7400060;19;20132;-78
2022/05/05 13:07:19;;;;;;;26.13;17.38;;;;;15.50;94398.00;;;;7399953;19;20157;-79
2022/05/05 13:09:47;;;;;;;20.08;17.70;;;;;15.80;94397.00;;;;7397762;19;20165;-78
2022/05/05 13:12:21;;;;;;;20.33;17.02;;;;;16.50;94401.00;;;;7396660;19;20152;-77
2022/05/05 13:14:49;;;;;;;19.30;17.42;;;;;17.10;94394.00;;;;7400122;19;20622;-76
2022/05/05 13:17:18;;;;;;;26.05;18.00;;;;;17.10;94393.00;;;;7399309;19;20177;-78
2022/05/05 13:19:53;;;;;;;18.95;17.02;;;;;17.00;94399.00;;;;7399263;19;20149;-80
2022/05/05 13:22:22;;;;;;;19.55;16.73;;;;;16.20;94402.00;;;;7398737;19;20137;-79
2022/05/05 13:24:49;;;;;;;18.58;16.67;;;;;15.90;94407.00;;;;7398856;19;20480;-78
2022/05/05 13:27:24;;;;;;;18.30;16.13;;;;;16.50;94410.00;;;;7399327;19;20606;-78
2022/05/05 13:29:51;;;;;;;18.35;16.60;;;;;17.10;94391.00;;;;7397826;19;20212;-77
2022/05/05 13:32:20;;;;;;;21.63;17.20;;;;;15.90;94399.00;;;;7395603;19;20532;-78
2022/05/05 13:35:00;;;;;;;19.30;16.95;;;;;16.40;94397.00;;;;7397644;19;20140;-80
2022/05/05 13:37:28;;;;;;;19.30;16.75;;;;;16.00;94393.00;;;;7396316;19;20133;-78
2022/05/05 13:40:07;;;;;;;22.13;17.33;;;;;16.10;94395.00;;;;7397874;19;20602;-77
2022/05/05 13:42:34;;;;;;;17.20;15.55;;;;;15.70;94399.00;;;;7398347;19;20143;-78
2022/05/05 13:45:02;;;;;;;18.30;16.13;;;;;15.00;94398.00;;;;7398071;19;20144;-76
2022/05/05 13:47:37;;;;;;;20.58;16.60;;;;;15.90;94391.00;;;;7398841;19;20132;-76
2022/05/05 13:50:07;;;;;;;17.95;16.05;;;;;16.50;94404.00;;;;7398264;19;20132;-78
2022/05/05 13:52:34;;;;;;;17.85;15.20;;;;;15.60;94394.00;;;;7397468;19;20125;-78
2022/05/05 13:55:09;;;;;;;21.27;16.55;;;;;16.30;94400.00;;;;7398470;19;20167;-75
2022/05/05 13:57:38;;;;;;;18.65;15.98;;;;;16.00;94402.00;;;;7400923;19;20129;-76
2022/05/05 14:00:15;;;;;;;20.23;16.38;;;;;15.90;94400.00;;;;7397272;19;20469;-79
2022/05/05 14:02:50;;;;;;;18.48;15.70;;;;;15.40;94402.00;;;;7401464;19;20247;-77
2022/05/05 14:05:18;;;;;;;18.75;15.80;;;;;14.80;94397.00;;;;7398304;19;20133;-77
2022/05/05 14:13:26;;;;;;;22.90;16.13;;;;;14.50;94415.00;;;;7394971;19;20145;-75
2022/05/05 14:16:01;;;;;;;22.05;16.85;;;;;13.90;94424.00;;;;7396907;19;20120;-78
2022/05/05 14:18:28;;;;;;;22.55;16.45;;;;;13.50;94416.00;;;;7400759;19;20145;-76
2022/05/05 14:20:58;;;;;;;18.13;15.77;;;;;13.40;94413.00;;;;7395599;19;20141;-77
2022/05/05 14:23:55;;;;;;;20.60;16.30;;;;;13.80;94415.00;;;;7394836;19;20208;-77
2022/05/05 14:26:30;;;;;;;19.25;16.02;;;;;13.60;94421.00;;;;7397015;19;20137;-76
2022/05/05 14:29:04;;;;;;;18.60;16.30;;;;;13.60;94416.00;;;;7395551;19;20137;-77
2022/05/05 14:31:47;;;;;;;25.10;16.90;;;;;13.90;94428.00;;;;7397068;19;20181;-78
2022/05/05 14:34:22;;;;;;;22.30;17.83;;;;;13.90;94432.00;;;;7395187;19;20141;-77
2022/05/05 14:36:50;;;;;;;21.23;18.90;;;;;13.00;94437.00;;;;7396154;19;20607;-75
2022/05/05 14:39:18;;;;;;;20.17;18.00;;;;;13.10;94436.00;;;;7391593;19;20165;-75
2022/05/05 14:41:52;;;;;;;20.65;18.02;;;;;13.40;94444.00;;;;7395778;19;20146;-75
2022/05/05 14:44:22;;;;;;;25.20;19.55;;;;;13.50;94438.00;;;;7397195;19;20141;-75
2022/05/05 14:46:50;;;;;;;20.10;18.00;;;;;13.40;94444.00;;;;7397617;19;20128;-77
2022/05/05 14:49:24;;;;;;;23.48;20.20;;;;;12.70;94454.00;;;;7395608;19;20140;-77
2022/05/05 14:51:52;;;;;;;23.77;20.30;;;;;12.60;94451.00;;;;7394694;19;20168;-78
2022/05/05 14:54:20;;;;;;;23.50;20.42;;;;;12.30;94455.00;;;;7394336;19;20757;-78
2022/05/05 14:56:56;;;;;;;26.38;21.20;;;;;12.20;94462.00;;;;7396017;19;20128;-78